sensor_id;sensor_type;location;lat;lon;timestamp;P1;durP1;ratioP1;P2;durP2;ratioP2
14104;SDS011;7130;52.484;4.766;2022-08-05T00:01:39;5.63;;;3.87;;
14104;SDS011;7130;52.484;4.766;2022-08-05T00:04:08;5.82;;;3.67;;
14104;SDS011;7130;52.484;4.766;2022-08-05T00:06:35;8.40;;;3.88;;
14104;SDS011;7130;52.484;4.766;2022-08-05T00:09:02;7.53;;;3.77;;
14104;SDS011;7130;52.484;4.766;2022-08-05T00:11:29;7.15;;;3.65;;
14104;SDS011;7130;52.484;4.766;2022-08-05T00:13:56;5.57;;;3.58;;
14104;SDS011;7130;52.484;4.766;2022-08-05T00:16:23;6.90;;;3.47;;
14104;SDS011;7130;52.484;4.766;2022-08-05T00:18:50;7.30;;;3.30;;
14104;SDS011;7130;52.484;4.766;2022-08-05T00:21:19;6.43;;;3.50;;
14104;SDS011;7130;52.484;4.766;2022-08-05T00:23:46;6.43;;;3.65;;
14104;SDS011;7130;52.484;4.766;2022-08-05T00:26:14;5.83;;;3.20;;
14104;SDS011;7130;52.484;4.766;2022-08-05T00:28:41;6.32;;;3.50;;
14104;SDS011;7130;52.484;4.766;2022-08-05T00:31:08;6.38;;;3.40;;
14104;SDS011;7130;52.484;4.766;2022-08-05T00:33:36;8.27;;;3.55;;
14104;SDS011;7130;52.484;4.766;2022-08-05T00:36:03;8.13;;;3.72;;
14104;SDS011;7130;52.484;4.766;2022-08-05T00:38:31;6.13;;;3.53;;
14104;SDS011;7130;52.484;4.766;2022-08-05T00:40:59;6.68;;;3.33;;
14104;SDS011;7130;52.484;4.766;2022-08-05T00:43:26;6.95;;;3.78;;
14104;SDS011;7130;52.484;4.766;2022-08-05T00:45:54;6.68;;;3.45;;
14104;SDS011;7130;52.484;4.766;2022-08-05T00:48:22;7.78;;;3.70;;
14104;SDS011;7130;52.484;4.766;2022-08-05T00:50:49;5.65;;;3.50;;
14104;SDS011;7130;52.484;4.766;2022-08-05T00:53:18;7.13;;;3.67;;
14104;SDS011;7130;52.484;4.766;2022-08-05T00:55:46;8.43;;;3.72;;
14104;SDS011;7130;52.484;4.766;2022-08-05T00:58:14;8.57;;;3.40;;
14104;SDS011;7130;52.484;4.766;2022-08-05T01:00:42;5.85;;;3.20;;
14104;SDS011;7130;52.484;4.766;2022-08-05T01:03:09;7.22;;;3.40;;
14104;SDS011;7130;52.484;4.766;2022-08-05T01:05:36;6.57;;;3.10;;
14104;SDS011;7130;52.484;4.766;2022-08-05T01:08:05;6.57;;;3.00;;
14104;SDS011;7130;52.484;4.766;2022-08-05T01:10:35;6.93;;;3.33;;
14104;SDS011;7130;52.484;4.766;2022-08-05T01:13:05;5.47;;;3.13;;
14104;SDS011;7130;52.484;4.766;2022-08-05T01:15:34;6.38;;;3.10;;
14104;SDS011;7130;52.484;4.766;2022-08-05T01:18:04;5.32;;;2.97;;
14104;SDS011;7130;52.484;4.766;2022-08-05T01:20:33;6.30;;;3.30;;
14104;SDS011;7130;52.484;4.766;2022-08-05T01:23:07;5.63;;;2.95;;
14104;SDS011;7130;52.484;4.766;2022-08-05T01:25:42;6.38;;;3.03;;
14104;SDS011;7130;52.484;4.766;2022-08-05T01:28:14;7.35;;;3.50;;
14104;SDS011;7130;52.484;4.766;2022-08-05T01:30:45;7.00;;;3.33;;
14104;SDS011;7130;52.484;4.766;2022-08-05T01:33:13;5.47;;;2.65;;
14104;SDS011;7130;52.484;4.766;2022-08-05T01:35:41;4.65;;;2.70;;
14104;SDS011;7130;52.484;4.766;2022-08-05T01:38:11;5.35;;;2.95;;
14104;SDS011;7130;52.484;4.766;2022-08-05T01:40:39;5.63;;;2.87;;
14104;SDS011;7130;52.484;4.766;2022-08-05T01:43:06;6.10;;;3.00;;
14104;SDS011;7130;52.484;4.766;2022-08-05T01:45:37;5.65;;;2.80;;
14104;SDS011;7130;52.484;4.766;2022-08-05T01:48:05;4.45;;;2.88;;
14104;SDS011;7130;52.484;4.766;2022-08-05T01:50:34;5.65;;;2.78;;
14104;SDS011;7130;52.484;4.766;2022-08-05T01:53:03;4.37;;;2.40;;
14104;SDS011;7130;52.484;4.766;2022-08-05T01:55:32;5.75;;;2.60;;
14104;SDS011;7130;52.484;4.766;2022-08-05T01:57:59;6.73;;;2.97;;
14104;SDS011;7130;52.484;4.766;2022-08-05T02:00:27;6.47;;;2.60;;
14104;SDS011;7130;52.484;4.766;2022-08-05T02:02:57;5.78;;;2.63;;
14104;SDS011;7130;52.484;4.766;2022-08-05T02:05:27;4.45;;;2.40;;
14104;SDS011;7130;52.484;4.766;2022-08-05T02:07:55;6.10;;;2.70;;
14104;SDS011;7130;52.484;4.766;2022-08-05T02:10:23;5.00;;;2.40;;
14104;SDS011;7130;52.484;4.766;2022-08-05T02:12:52;4.93;;;2.60;;
14104;SDS011;7130;52.484;4.766;2022-08-05T02:15:21;4.95;;;2.67;;
14104;SDS011;7130;52.484;4.766;2022-08-05T02:17:49;4.47;;;2.53;;
14104;SDS011;7130;52.484;4.766;2022-08-05T02:20:19;6.30;;;2.72;;
14104;SDS011;7130;52.484;4.766;2022-08-05T02:22:49;4.13;;;2.50;;
14104;SDS011;7130;52.484;4.766;2022-08-05T02:25:21;6.07;;;2.50;;
14104;SDS011;7130;52.484;4.766;2022-08-05T02:27:50;5.03;;;2.60;;
14104;SDS011;7130;52.484;4.766;2022-08-05T02:30:18;5.40;;;2.65;;
14104;SDS011;7130;52.484;4.766;2022-08-05T02:32:46;5.70;;;2.70;;
14104;SDS011;7130;52.484;4.766;2022-08-05T02:35:14;5.15;;;2.60;;
14104;SDS011;7130;52.484;4.766;2022-08-05T02:37:43;4.53;;;2.70;;
14104;SDS011;7130;52.484;4.766;2022-08-05T02:40:11;5.30;;;2.53;;
14104;SDS011;7130;52.484;4.766;2022-08-05T02:42:39;4.55;;;2.60;;
14104;SDS011;7130;52.484;4.766;2022-08-05T02:45:07;5.55;;;2.80;;
14104;SDS011;7130;52.484;4.766;2022-08-05T02:47:35;5.22;;;2.67;;
14104;SDS011;7130;52.484;4.766;2022-08-05T02:50:02;5.05;;;2.67;;
14104;SDS011;7130;52.484;4.766;2022-08-05T02:52:30;4.40;;;2.58;;
14104;SDS011;7130;52.484;4.766;2022-08-05T02:55:00;6.30;;;2.72;;
14104;SDS011;7130;52.484;4.766;2022-08-05T02:57:27;5.45;;;2.75;;
14104;SDS011;7130;52.484;4.766;2022-08-05T02:59:54;4.68;;;2.53;;
14104;SDS011;7130;52.484;4.766;2022-08-05T03:02:23;6.05;;;2.35;;
14104;SDS011;7130;52.484;4.766;2022-08-05T03:04:52;6.20;;;2.33;;
14104;SDS011;7130;52.484;4.766;2022-08-05T03:07:20;3.83;;;2.30;;
14104;SDS011;7130;52.484;4.766;2022-08-05T03:09:47;5.53;;;2.40;;
14104;SDS011;7130;52.484;4.766;2022-08-05T03:12:29;4.28;;;2.42;;
14104;SDS011;7130;52.484;4.766;2022-08-05T03:14:56;4.85;;;2.60;;
14104;SDS011;7130;52.484;4.766;2022-08-05T03:17:23;4.77;;;2.37;;
14104;SDS011;7130;52.484;4.766;2022-08-05T03:19:50;4.13;;;2.25;;
14104;SDS011;7130;52.484;4.766;2022-08-05T03:22:18;4.45;;;2.15;;
14104;SDS011;7130;52.484;4.766;2022-08-05T03:24:45;4.00;;;2.15;;
14104;SDS011;7130;52.484;4.766;2022-08-05T03:27:13;4.32;;;2.30;;
14104;SDS011;7130;52.484;4.766;2022-08-05T03:29:41;4.22;;;2.30;;
14104;SDS011;7130;52.484;4.766;2022-08-05T03:32:08;4.70;;;2.28;;
14104;SDS011;7130;52.484;4.766;2022-08-05T03:34:36;3.90;;;2.20;;
14104;SDS011;7130;52.484;4.766;2022-08-05T03:37:04;6.30;;;2.30;;
14104;SDS011;7130;52.484;4.766;2022-08-05T03:39:31;4.78;;;1.92;;
14104;SDS011;7130;52.484;4.766;2022-08-05T03:41:58;4.82;;;2.28;;
14104;SDS011;7130;52.484;4.766;2022-08-05T03:44:25;3.45;;;2.10;;
14104;SDS011;7130;52.484;4.766;2022-08-05T03:46:54;4.40;;;2.17;;
14104;SDS011;7130;52.484;4.766;2022-08-05T03:49:21;2.92;;;1.90;;
14104;SDS011;7130;52.484;4.766;2022-08-05T03:51:49;4.38;;;2.30;;
14104;SDS011;7130;52.484;4.766;2022-08-05T03:54:22;3.00;;;1.80;;
14104;SDS011;7130;52.484;4.766;2022-08-05T03:56:51;3.28;;;2.00;;
14104;SDS011;7130;52.484;4.766;2022-08-05T03:59:20;3.40;;;1.60;;
14104;SDS011;7130;52.484;4.766;2022-08-05T04:01:49;4.63;;;2.00;;
14104;SDS011;7130;52.484;4.766;2022-08-05T04:04:18;5.47;;;2.00;;
14104;SDS011;7130;52.484;4.766;2022-08-05T04:06:46;3.67;;;2.05;;
14104;SDS011;7130;52.484;4.766;2022-08-05T04:09:13;3.53;;;1.80;;
14104;SDS011;7130;52.484;4.766;2022-08-05T04:11:41;3.75;;;2.08;;
14104;SDS011;7130;52.484;4.766;2022-08-05T04:14:08;3.53;;;1.90;;
14104;SDS011;7130;52.484;4.766;2022-08-05T04:16:36;4.18;;;2.10;;
14104;SDS011;7130;52.484;4.766;2022-08-05T04:19:03;4.30;;;2.10;;
14104;SDS011;7130;52.484;4.766;2022-08-05T04:21:32;3.65;;;1.90;;
14104;SDS011;7130;52.484;4.766;2022-08-05T04:23:59;3.58;;;1.80;;
14104;SDS011;7130;52.484;4.766;2022-08-05T04:26:28;4.15;;;2.20;;
14104;SDS011;7130;52.484;4.766;2022-08-05T04:28:55;3.90;;;2.22;;
14104;SDS011;7130;52.484;4.766;2022-08-05T04:31:22;4.63;;;2.08;;
14104;SDS011;7130;52.484;4.766;2022-08-05T04:33:49;3.92;;;2.25;;
14104;SDS011;7130;52.484;4.766;2022-08-05T04:36:16;4.63;;;2.05;;
14104;SDS011;7130;52.484;4.766;2022-08-05T04:38:45;3.13;;;1.80;;
14104;SDS011;7130;52.484;4.766;2022-08-05T04:41:12;2.97;;;1.92;;
14104;SDS011;7130;52.484;4.766;2022-08-05T04:43:39;4.60;;;2.03;;
14104;SDS011;7130;52.484;4.766;2022-08-05T04:46:06;3.38;;;2.10;;
14104;SDS011;7130;52.484;4.766;2022-08-05T04:48:33;3.50;;;1.98;;
14104;SDS011;7130;52.484;4.766;2022-08-05T04:51:00;2.97;;;1.60;;
14104;SDS011;7130;52.484;4.766;2022-08-05T04:53:27;3.17;;;1.90;;
14104;SDS011;7130;52.484;4.766;2022-08-05T04:55:56;4.90;;;1.90;;
14104;SDS011;7130;52.484;4.766;2022-08-05T04:58:23;3.53;;;1.90;;
14104;SDS011;7130;52.484;4.766;2022-08-05T05:00:50;2.97;;;1.80;;
14104;SDS011;7130;52.484;4.766;2022-08-05T05:03:17;4.38;;;1.80;;
14104;SDS011;7130;52.484;4.766;2022-08-05T05:05:44;2.57;;;1.50;;
14104;SDS011;7130;52.484;4.766;2022-08-05T05:08:11;3.25;;;1.70;;
14104;SDS011;7130;52.484;4.766;2022-08-05T05:10:40;4.22;;;1.60;;
14104;SDS011;7130;52.484;4.766;2022-08-05T05:13:09;2.92;;;1.60;;
14104;SDS011;7130;52.484;4.766;2022-08-05T05:15:36;2.20;;;1.50;;
14104;SDS011;7130;52.484;4.766;2022-08-05T05:18:03;3.05;;;1.70;;
14104;SDS011;7130;52.484;4.766;2022-08-05T05:20:31;4.22;;;1.38;;
14104;SDS011;7130;52.484;4.766;2022-08-05T05:22:59;4.50;;;1.73;;
14104;SDS011;7130;52.484;4.766;2022-08-05T05:25:28;3.78;;;1.60;;
14104;SDS011;7130;52.484;4.766;2022-08-05T05:27:55;4.63;;;1.63;;
14104;SDS011;7130;52.484;4.766;2022-08-05T05:30:24;1.98;;;1.50;;
14104;SDS011;7130;52.484;4.766;2022-08-05T05:32:51;3.08;;;1.70;;
14104;SDS011;7130;52.484;4.766;2022-08-05T05:35:18;2.88;;;1.50;;
14104;SDS011;7130;52.484;4.766;2022-08-05T05:37:47;2.97;;;1.60;;
14104;SDS011;7130;52.484;4.766;2022-08-05T05:40:14;3.25;;;1.38;;
14104;SDS011;7130;52.484;4.766;2022-08-05T05:42:42;3.25;;;1.38;;
14104;SDS011;7130;52.484;4.766;2022-08-05T05:45:09;3.23;;;1.50;;
14104;SDS011;7130;52.484;4.766;2022-08-05T05:47:38;2.42;;;1.23;;
14104;SDS011;7130;52.484;4.766;2022-08-05T05:50:06;2.90;;;1.48;;
14104;SDS011;7130;52.484;4.766;2022-08-05T05:52:33;3.70;;;1.30;;
14104;SDS011;7130;52.484;4.766;2022-08-05T05:55:00;1.90;;;1.02;;
14104;SDS011;7130;52.484;4.766;2022-08-05T05:57:28;2.13;;;1.10;;
14104;SDS011;7130;52.484;4.766;2022-08-05T05:59:55;3.00;;;1.38;;
14104;SDS011;7130;52.484;4.766;2022-08-05T06:02:22;2.17;;;1.20;;
14104;SDS011;7130;52.484;4.766;2022-08-05T06:04:50;4.13;;;1.40;;
14104;SDS011;7130;52.484;4.766;2022-08-05T06:07:17;2.17;;;1.00;;
14104;SDS011;7130;52.484;4.766;2022-08-05T06:09:44;2.13;;;1.10;;
14104;SDS011;7130;52.484;4.766;2022-08-05T06:12:12;2.87;;;1.07;;
14104;SDS011;7130;52.484;4.766;2022-08-05T06:14:39;2.65;;;1.13;;
14104;SDS011;7130;52.484;4.766;2022-08-05T06:17:08;1.88;;;0.90;;
14104;SDS011;7130;52.484;4.766;2022-08-05T06:19:35;3.70;;;1.10;;
14104;SDS011;7130;52.484;4.766;2022-08-05T06:22:04;1.95;;;0.80;;
14104;SDS011;7130;52.484;4.766;2022-08-05T06:24:32;2.00;;;1.00;;
14104;SDS011;7130;52.484;4.766;2022-08-05T06:26:59;2.45;;;0.90;;
14104;SDS011;7130;52.484;4.766;2022-08-05T06:29:26;2.83;;;1.03;;
14104;SDS011;7130;52.484;4.766;2022-08-05T06:31:53;3.08;;;1.25;;
14104;SDS011;7130;52.484;4.766;2022-08-05T06:34:20;2.92;;;1.17;;
14104;SDS011;7130;52.484;4.766;2022-08-05T06:36:47;2.22;;;1.02;;
14104;SDS011;7130;52.484;4.766;2022-08-05T06:39:15;2.65;;;1.20;;
14104;SDS011;7130;52.484;4.766;2022-08-05T06:41:42;2.83;;;1.00;;
14104;SDS011;7130;52.484;4.766;2022-08-05T06:44:10;2.88;;;0.88;;
14104;SDS011;7130;52.484;4.766;2022-08-05T06:46:37;3.38;;;1.10;;
14104;SDS011;7130;52.484;4.766;2022-08-05T06:49:04;3.53;;;1.10;;
14104;SDS011;7130;52.484;4.766;2022-08-05T06:51:31;3.30;;;1.17;;
14104;SDS011;7130;52.484;4.766;2022-08-05T06:53:58;3.35;;;1.05;;
14104;SDS011;7130;52.484;4.766;2022-08-05T06:56:27;2.10;;;1.00;;
14104;SDS011;7130;52.484;4.766;2022-08-05T06:58:54;2.28;;;1.00;;
14104;SDS011;7130;52.484;4.766;2022-08-05T07:01:21;2.47;;;1.05;;
14104;SDS011;7130;52.484;4.766;2022-08-05T07:03:49;3.03;;;1.10;;
14104;SDS011;7130;52.484;4.766;2022-08-05T07:06:16;1.95;;;1.13;;
14104;SDS011;7130;52.484;4.766;2022-08-05T07:08:43;2.35;;;0.98;;
14104;SDS011;7130;52.484;4.766;2022-08-05T07:11:10;3.80;;;1.30;;
14104;SDS011;7130;52.484;4.766;2022-08-05T07:13:39;3.05;;;0.90;;
14104;SDS011;7130;52.484;4.766;2022-08-05T07:16:38;3.13;;;1.00;;
14104;SDS011;7130;52.484;4.766;2022-08-05T07:19:14;3.05;;;1.10;;
14104;SDS011;7130;52.484;4.766;2022-08-05T07:21:42;2.05;;;1.00;;
14104;SDS011;7130;52.484;4.766;2022-08-05T07:24:09;2.28;;;0.60;;
14104;SDS011;7130;52.484;4.766;2022-08-05T07:26:36;1.40;;;0.70;;
14104;SDS011;7130;52.484;4.766;2022-08-05T07:29:05;3.13;;;0.95;;
14104;SDS011;7130;52.484;4.766;2022-08-05T07:31:32;2.08;;;0.82;;
14104;SDS011;7130;52.484;4.766;2022-08-05T07:33:59;2.25;;;0.75;;
14104;SDS011;7130;52.484;4.766;2022-08-05T07:36:26;2.55;;;0.80;;
14104;SDS011;7130;52.484;4.766;2022-08-05T07:38:54;1.45;;;0.70;;
14104;SDS011;7130;52.484;4.766;2022-08-05T07:41:21;1.88;;;0.80;;
14104;SDS011;7130;52.484;4.766;2022-08-05T07:43:49;2.13;;;0.80;;
14104;SDS011;7130;52.484;4.766;2022-08-05T07:46:17;2.13;;;0.70;;
14104;SDS011;7130;52.484;4.766;2022-08-05T07:48:45;2.03;;;0.80;;
14104;SDS011;7130;52.484;4.766;2022-08-05T07:51:12;2.15;;;0.85;;
14104;SDS011;7130;52.484;4.766;2022-08-05T07:53:39;1.52;;;0.60;;
14104;SDS011;7130;52.484;4.766;2022-08-05T07:56:07;2.53;;;0.60;;
14104;SDS011;7130;52.484;4.766;2022-08-05T07:58:34;2.30;;;0.70;;
14104;SDS011;7130;52.484;4.766;2022-08-05T08:01:01;2.67;;;0.77;;
14104;SDS011;7130;52.484;4.766;2022-08-05T08:03:30;2.33;;;0.70;;
14104;SDS011;7130;52.484;4.766;2022-08-05T08:05:57;2.10;;;0.60;;
14104;SDS011;7130;52.484;4.766;2022-08-05T08:08:24;2.22;;;0.77;;
14104;SDS011;7130;52.484;4.766;2022-08-05T08:10:51;2.00;;;0.70;;
14104;SDS011;7130;52.484;4.766;2022-08-05T08:13:19;1.30;;;0.60;;
14104;SDS011;7130;52.484;4.766;2022-08-05T08:15:47;1.60;;;0.80;;
14104;SDS011;7130;52.484;4.766;2022-08-05T08:18:14;2.72;;;0.73;;
14104;SDS011;7130;52.484;4.766;2022-08-05T08:20:43;1.42;;;0.70;;
14104;SDS011;7130;52.484;4.766;2022-08-05T08:23:10;2.55;;;0.73;;
14104;SDS011;7130;52.484;4.766;2022-08-05T08:25:37;1.45;;;0.73;;
14104;SDS011;7130;52.484;4.766;2022-08-05T08:28:04;1.50;;;0.70;;
14104;SDS011;7130;52.484;4.766;2022-08-05T08:30:32;1.10;;;0.50;;
14104;SDS011;7130;52.484;4.766;2022-08-05T08:32:59;2.22;;;0.70;;
14104;SDS011;7130;52.484;4.766;2022-08-05T08:35:26;0.95;;;0.50;;
14104;SDS011;7130;52.484;4.766;2022-08-05T08:37:55;1.50;;;0.70;;
14104;SDS011;7130;52.484;4.766;2022-08-05T08:40:22;1.63;;;0.60;;
14104;SDS011;7130;52.484;4.766;2022-08-05T08:42:49;2.50;;;0.50;;
14104;SDS011;7130;52.484;4.766;2022-08-05T08:45:18;1.98;;;0.60;;
14104;SDS011;7130;52.484;4.766;2022-08-05T08:47:46;1.48;;;0.65;;
14104;SDS011;7130;52.484;4.766;2022-08-05T08:50:15;1.63;;;0.50;;
14104;SDS011;7130;52.484;4.766;2022-08-05T08:52:45;1.75;;;0.70;;
14104;SDS011;7130;52.484;4.766;2022-08-05T08:55:16;1.90;;;0.73;;
14104;SDS011;7130;52.484;4.766;2022-08-05T08:57:43;2.15;;;0.60;;
14104;SDS011;7130;52.484;4.766;2022-08-05T09:00:11;2.25;;;0.65;;
14104;SDS011;7130;52.484;4.766;2022-08-05T09:02:38;1.20;;;0.53;;
14104;SDS011;7130;52.484;4.766;2022-08-05T09:05:05;1.27;;;0.70;;
14104;SDS011;7130;52.484;4.766;2022-08-05T09:07:33;3.28;;;0.85;;
14104;SDS011;7130;52.484;4.766;2022-08-05T09:10:00;2.10;;;0.68;;
14104;SDS011;7130;52.484;4.766;2022-08-05T09:12:28;1.83;;;0.60;;
14104;SDS011;7130;52.484;4.766;2022-08-05T09:14:55;2.17;;;0.95;;
14104;SDS011;7130;52.484;4.766;2022-08-05T09:17:23;1.98;;;0.70;;
14104;SDS011;7130;52.484;4.766;2022-08-05T09:19:50;2.00;;;0.80;;
14104;SDS011;7130;52.484;4.766;2022-08-05T09:22:17;2.40;;;0.75;;
14104;SDS011;7130;52.484;4.766;2022-08-05T09:24:55;2.95;;;0.88;;
14104;SDS011;7130;52.484;4.766;2022-08-05T09:27:34;2.22;;;0.55;;
14104;SDS011;7130;52.484;4.766;2022-08-05T09:30:01;2.60;;;0.70;;
14104;SDS011;7130;52.484;4.766;2022-08-05T09:32:34;1.65;;;0.63;;
14104;SDS011;7130;52.484;4.766;2022-08-05T09:35:09;2.17;;;0.63;;
14104;SDS011;7130;52.484;4.766;2022-08-05T09:37:37;2.10;;;0.70;;
14104;SDS011;7130;52.484;4.766;2022-08-05T09:40:06;2.30;;;0.80;;
14104;SDS011;7130;52.484;4.766;2022-08-05T09:42:40;2.25;;;0.70;;
14104;SDS011;7130;52.484;4.766;2022-08-05T09:45:08;1.85;;;0.60;;
14104;SDS011;7130;52.484;4.766;2022-08-05T09:47:37;2.35;;;0.82;;
14104;SDS011;7130;52.484;4.766;2022-08-05T09:50:06;5.75;;;0.98;;
14104;SDS011;7130;52.484;4.766;2022-08-05T09:52:34;2.45;;;0.80;;
14104;SDS011;7130;52.484;4.766;2022-08-05T09:55:02;3.13;;;0.90;;
14104;SDS011;7130;52.484;4.766;2022-08-05T09:57:31;1.50;;;0.75;;
14104;SDS011;7130;52.484;4.766;2022-08-05T10:00:00;1.52;;;0.70;;
14104;SDS011;7130;52.484;4.766;2022-08-05T10:02:34;3.25;;;0.90;;
14104;SDS011;7130;52.484;4.766;2022-08-05T10:05:06;1.60;;;0.60;;
14104;SDS011;7130;52.484;4.766;2022-08-05T10:07:47;1.90;;;0.67;;
14104;SDS011;7130;52.484;4.766;2022-08-05T10:10:15;1.63;;;0.70;;
14104;SDS011;7130;52.484;4.766;2022-08-05T10:12:43;1.90;;;0.68;;
14104;SDS011;7130;52.484;4.766;2022-08-05T10:15:18;2.80;;;0.73;;
14104;SDS011;7130;52.484;4.766;2022-08-05T10:20:28;1.30;;;0.73;;
14104;SDS011;7130;52.484;4.766;2022-08-05T10:22:56;2.35;;;0.93;;
14104;SDS011;7130;52.484;4.766;2022-08-05T10:25:23;2.00;;;0.70;;
14104;SDS011;7130;52.484;4.766;2022-08-05T10:27:50;2.22;;;0.63;;
14104;SDS011;7130;52.484;4.766;2022-08-05T10:30:19;2.92;;;0.90;;
14104;SDS011;7130;52.484;4.766;2022-08-05T10:32:47;1.27;;;0.50;;
14104;SDS011;7130;52.484;4.766;2022-08-05T10:35:14;1.80;;;0.80;;
14104;SDS011;7130;52.484;4.766;2022-08-05T10:37:41;2.78;;;0.95;;
14104;SDS011;7130;52.484;4.766;2022-08-05T10:40:13;2.63;;;0.80;;
14104;SDS011;7130;52.484;4.766;2022-08-05T10:42:42;3.27;;;0.80;;
14104;SDS011;7130;52.484;4.766;2022-08-05T10:45:13;2.53;;;0.70;;
14104;SDS011;7130;52.484;4.766;2022-08-05T10:47:42;1.42;;;0.70;;
14104;SDS011;7130;52.484;4.766;2022-08-05T10:50:10;2.25;;;0.90;;
14104;SDS011;7130;52.484;4.766;2022-08-05T10:52:39;3.10;;;0.80;;
14104;SDS011;7130;52.484;4.766;2022-08-05T10:55:08;2.17;;;1.00;;
14104;SDS011;7130;52.484;4.766;2022-08-05T10:57:36;2.80;;;0.90;;
14104;SDS011;7130;52.484;4.766;2022-08-05T11:00:06;2.35;;;0.88;;
14104;SDS011;7130;52.484;4.766;2022-08-05T11:02:33;2.22;;;1.13;;
14104;SDS011;7130;52.484;4.766;2022-08-05T11:05:03;2.33;;;0.90;;
14104;SDS011;7130;52.484;4.766;2022-08-05T11:07:31;2.55;;;1.20;;
14104;SDS011;7130;52.484;4.766;2022-08-05T11:09:59;2.97;;;1.00;;
14104;SDS011;7130;52.484;4.766;2022-08-05T11:12:43;1.50;;;0.70;;
14104;SDS011;7130;52.484;4.766;2022-08-05T11:15:18;2.55;;;0.60;;
14104;SDS011;7130;52.484;4.766;2022-08-05T11:17:46;1.70;;;0.70;;
14104;SDS011;7130;52.484;4.766;2022-08-05T11:20:35;1.97;;;0.90;;
14104;SDS011;7130;52.484;4.766;2022-08-05T11:25:59;1.77;;;0.75;;
14104;SDS011;7130;52.484;4.766;2022-08-05T11:28:43;2.85;;;0.90;;
14104;SDS011;7130;52.484;4.766;2022-08-05T11:34:05;1.55;;;0.60;;
14104;SDS011;7130;52.484;4.766;2022-08-05T11:36:47;2.10;;;0.93;;
14104;SDS011;7130;52.484;4.766;2022-08-05T11:39:16;2.40;;;0.70;;
14104;SDS011;7130;52.484;4.766;2022-08-05T11:41:50;4.20;;;0.80;;
14104;SDS011;7130;52.484;4.766;2022-08-05T11:44:19;2.67;;;0.90;;
14104;SDS011;7130;52.484;4.766;2022-08-05T11:46:47;3.72;;;1.00;;
14104;SDS011;7130;52.484;4.766;2022-08-05T11:49:15;2.67;;;1.05;;
14104;SDS011;7130;52.484;4.766;2022-08-05T11:51:42;2.38;;;0.90;;
14104;SDS011;7130;52.484;4.766;2022-08-05T11:54:11;2.00;;;0.80;;
14104;SDS011;7130;52.484;4.766;2022-08-05T11:56:42;2.60;;;0.80;;
14104;SDS011;7130;52.484;4.766;2022-08-05T11:59:14;2.45;;;0.82;;
14104;SDS011;7130;52.484;4.766;2022-08-05T12:01:51;1.70;;;0.60;;
14104;SDS011;7130;52.484;4.766;2022-08-05T12:04:18;1.98;;;0.73;;
14104;SDS011;7130;52.484;4.766;2022-08-05T12:06:45;2.25;;;0.80;;
14104;SDS011;7130;52.484;4.766;2022-08-05T12:09:14;3.53;;;0.80;;
14104;SDS011;7130;52.484;4.766;2022-08-05T12:11:44;2.30;;;0.90;;
14104;SDS011;7130;52.484;4.766;2022-08-05T12:14:11;1.35;;;0.60;;
14104;SDS011;7130;52.484;4.766;2022-08-05T12:16:39;1.80;;;0.80;;
14104;SDS011;7130;52.484;4.766;2022-08-05T12:19:07;3.58;;;0.90;;
14104;SDS011;7130;52.484;4.766;2022-08-05T12:21:35;1.40;;;0.68;;
14104;SDS011;7130;52.484;4.766;2022-08-05T12:24:08;1.80;;;0.60;;
14104;SDS011;7130;52.484;4.766;2022-08-05T12:26:38;1.70;;;0.60;;
14104;SDS011;7130;52.484;4.766;2022-08-05T12:29:07;1.02;;;0.60;;
14104;SDS011;7130;52.484;4.766;2022-08-05T12:31:34;1.25;;;0.60;;
14104;SDS011;7130;52.484;4.766;2022-08-05T12:34:01;1.23;;;0.55;;
14104;SDS011;7130;52.484;4.766;2022-08-05T12:36:28;2.00;;;0.80;;
14104;SDS011;7130;52.484;4.766;2022-08-05T12:38:56;1.30;;;0.70;;
14104;SDS011;7130;52.484;4.766;2022-08-05T12:41:27;2.20;;;0.80;;
14104;SDS011;7130;52.484;4.766;2022-08-05T12:43:57;1.05;;;0.60;;
14104;SDS011;7130;52.484;4.766;2022-08-05T12:46:25;1.57;;;0.73;;
14104;SDS011;7130;52.484;4.766;2022-08-05T12:48:55;2.03;;;0.60;;
14104;SDS011;7130;52.484;4.766;2022-08-05T12:51:23;7.00;;;1.20;;
14104;SDS011;7130;52.484;4.766;2022-08-05T12:53:51;4.28;;;1.23;;
14104;SDS011;7130;52.484;4.766;2022-08-05T12:56:23;4.60;;;1.40;;
14104;SDS011;7130;52.484;4.766;2022-08-05T12:59:11;5.55;;;1.83;;
14104;SDS011;7130;52.484;4.766;2022-08-05T13:01:38;5.82;;;1.90;;
14104;SDS011;7130;52.484;4.766;2022-08-05T13:04:06;4.40;;;1.50;;
14104;SDS011;7130;52.484;4.766;2022-08-05T13:06:37;4.10;;;1.30;;
14104;SDS011;7130;52.484;4.766;2022-08-05T13:09:08;3.05;;;1.30;;
14104;SDS011;7130;52.484;4.766;2022-08-05T13:11:37;3.58;;;1.17;;
14104;SDS011;7130;52.484;4.766;2022-08-05T13:14:20;3.88;;;1.00;;
14104;SDS011;7130;52.484;4.766;2022-08-05T13:16:47;2.65;;;1.00;;
14104;SDS011;7130;52.484;4.766;2022-08-05T13:19:15;3.78;;;1.25;;
14104;SDS011;7130;52.484;4.766;2022-08-05T13:21:44;2.95;;;1.10;;
14104;SDS011;7130;52.484;4.766;2022-08-05T13:24:11;3.33;;;1.10;;
14104;SDS011;7130;52.484;4.766;2022-08-05T13:26:39;4.18;;;1.10;;
14104;SDS011;7130;52.484;4.766;2022-08-05T13:29:06;3.08;;;1.27;;
14104;SDS011;7130;52.484;4.766;2022-08-05T13:31:37;3.92;;;1.20;;
14104;SDS011;7130;52.484;4.766;2022-08-05T13:34:05;2.97;;;1.02;;
14104;SDS011;7130;52.484;4.766;2022-08-05T13:36:32;4.45;;;1.10;;
14104;SDS011;7130;52.484;4.766;2022-08-05T13:38:59;4.53;;;1.30;;
14104;SDS011;7130;52.484;4.766;2022-08-05T13:41:27;4.00;;;1.30;;
14104;SDS011;7130;52.484;4.766;2022-08-05T13:43:54;3.50;;;1.00;;
14104;SDS011;7130;52.484;4.766;2022-08-05T13:46:21;3.88;;;0.90;;
14104;SDS011;7130;52.484;4.766;2022-08-05T13:48:50;2.47;;;0.90;;
14104;SDS011;7130;52.484;4.766;2022-08-05T13:51:26;2.92;;;0.95;;
14104;SDS011;7130;52.484;4.766;2022-08-05T13:53:54;2.70;;;0.90;;
14104;SDS011;7130;52.484;4.766;2022-08-05T13:56:21;2.40;;;0.95;;
14104;SDS011;7130;52.484;4.766;2022-08-05T13:58:48;2.47;;;0.90;;
14104;SDS011;7130;52.484;4.766;2022-08-05T14:01:15;5.00;;;1.17;;
14104;SDS011;7130;52.484;4.766;2022-08-05T14:03:42;3.72;;;1.27;;
14104;SDS011;7130;52.484;4.766;2022-08-05T14:06:31;3.42;;;1.10;;
14104;SDS011;7130;52.484;4.766;2022-08-05T14:08:58;2.93;;;1.07;;
14104;SDS011;7130;52.484;4.766;2022-08-05T14:11:25;2.35;;;0.90;;
14104;SDS011;7130;52.484;4.766;2022-08-05T14:13:55;3.33;;;1.10;;
14104;SDS011;7130;52.484;4.766;2022-08-05T14:16:22;3.08;;;1.17;;
14104;SDS011;7130;52.484;4.766;2022-08-05T14:18:49;2.47;;;1.20;;
14104;SDS011;7130;52.484;4.766;2022-08-05T14:21:16;2.90;;;0.98;;
14104;SDS011;7130;52.484;4.766;2022-08-05T14:23:45;4.53;;;1.00;;
14104;SDS011;7130;52.484;4.766;2022-08-05T14:26:12;2.17;;;1.00;;
14104;SDS011;7130;52.484;4.766;2022-08-05T14:28:39;3.00;;;1.13;;
14104;SDS011;7130;52.484;4.766;2022-08-05T14:31:06;3.35;;;1.20;;
14104;SDS011;7130;52.484;4.766;2022-08-05T14:33:35;2.05;;;1.20;;
14104;SDS011;7130;52.484;4.766;2022-08-05T14:36:02;3.05;;;1.33;;
14104;SDS011;7130;52.484;4.766;2022-08-05T14:38:29;2.87;;;1.13;;
14104;SDS011;7130;52.484;4.766;2022-08-05T14:40:58;4.70;;;1.40;;
14104;SDS011;7130;52.484;4.766;2022-08-05T14:43:25;3.83;;;1.50;;
14104;SDS011;7130;52.484;4.766;2022-08-05T14:45:52;2.35;;;1.17;;
14104;SDS011;7130;52.484;4.766;2022-08-05T14:48:19;2.33;;;1.20;;
14104;SDS011;7130;52.484;4.766;2022-08-05T14:50:46;3.93;;;1.30;;
14104;SDS011;7130;52.484;4.766;2022-08-05T14:53:13;3.57;;;1.20;;
14104;SDS011;7130;52.484;4.766;2022-08-05T14:55:40;3.00;;;1.50;;
14104;SDS011;7130;52.484;4.766;2022-08-05T14:58:09;2.88;;;1.20;;
14104;SDS011;7130;52.484;4.766;2022-08-05T15:00:36;1.92;;;1.08;;
14104;SDS011;7130;52.484;4.766;2022-08-05T15:03:04;2.13;;;1.05;;
14104;SDS011;7130;52.484;4.766;2022-08-05T15:05:31;1.45;;;1.10;;
14104;SDS011;7130;52.484;4.766;2022-08-05T15:07:58;3.90;;;1.17;;
14104;SDS011;7130;52.484;4.766;2022-08-05T15:10:25;3.28;;;1.20;;
14104;SDS011;7130;52.484;4.766;2022-08-05T15:12:52;3.47;;;1.30;;
14104;SDS011;7130;52.484;4.766;2022-08-05T15:15:21;3.22;;;1.15;;
14104;SDS011;7130;52.484;4.766;2022-08-05T15:17:49;2.08;;;1.00;;